createdAt,value
2022-08-03T00:01:30.762Z,24.00
2022-08-03T00:03:57.619Z,24.00
2022-08-03T00:06:24.600Z,24.10
2022-08-03T00:08:51.684Z,24.10
2022-08-03T00:11:18.586Z,24.10
2022-08-03T00:13:45.547Z,24.10
2022-08-03T00:16:13.362Z,24.10
2022-08-03T00:18:40.888Z,24.00
2022-08-03T00:21:07.807Z,23.90
2022-08-03T00:23:52.493Z,24.00
2022-08-03T00:26:20.946Z,24.00
2022-08-03T00:28:48.588Z,23.70
2022-08-03T00:31:15.644Z,23.60
2022-08-03T00:33:59.493Z,23.60
2022-08-03T00:36:29.677Z,23.60
2022-08-03T00:38:56.833Z,23.80
2022-08-03T00:41:24.067Z,23.70
2022-08-03T00:43:50.985Z,23.70
2022-08-03T00:46:21.787Z,23.60
2022-08-03T00:48:50.185Z,23.60
2022-08-03T00:51:17.898Z,23.80
2022-08-03T00:53:45.766Z,23.70
2022-08-03T00:56:16.996Z,23.70
2022-08-03T00:58:45.318Z,23.50
2022-08-03T01:01:12.658Z,23.60
2022-08-03T01:03:40.619Z,23.80
2022-08-03T01:06:12.885Z,23.80
2022-08-03T01:08:54.006Z,23.60
2022-08-03T01:12:01.102Z,23.40
2022-08-03T01:14:31.440Z,23.30
2022-08-03T01:17:05.069Z,23.20
2022-08-03T01:19:53.871Z,23.20
2022-08-03T01:22:56.264Z,23.20
2022-08-03T01:25:54.500Z,23.10
2022-08-03T01:28:58.985Z,22.90
2022-08-03T01:32:58.803Z,22.90
2022-08-03T01:34:29.670Z,22.90
2022-08-03T01:36:59.609Z,22.90
2022-08-03T01:39:30.242Z,22.80
2022-08-03T01:42:06.207Z,22.70
2022-08-03T01:44:36.991Z,22.70
2022-08-03T01:47:06.398Z,22.70
2022-08-03T01:49:39.795Z,23.00
2022-08-03T01:52:08.405Z,22.90
2022-08-03T01:54:40.519Z,22.90
2022-08-03T01:57:09.502Z,23.00
2022-08-03T01:59:37.613Z,22.90
2022-08-03T02:02:27.811Z,22.80
2022-08-03T02:04:58.578Z,22.30
2022-08-03T02:07:27.019Z,22.30
2022-08-03T02:09:55.576Z,22.40
2022-08-03T02:12:25.357Z,22.40
2022-08-03T02:14:53.788Z,22.50
2022-08-03T02:17:38.547Z,22.50
2022-08-03T02:20:12.056Z,22.70
2022-08-03T02:22:41.208Z,22.60
2022-08-03T02:25:10.305Z,22.50
2022-08-03T02:27:43.669Z,22.40
2022-08-03T02:30:12.537Z,22.60
2022-08-03T02:32:41.033Z,22.70
2022-08-03T02:35:13.247Z,22.60
2022-08-03T02:37:49.788Z,22.80
2022-08-03T02:40:20.163Z,22.80
2022-08-03T02:42:51.299Z,22.90
2022-08-03T02:45:19.942Z,22.70
2022-08-03T02:47:53.494Z,22.60
2022-08-03T02:50:23.314Z,22.60
2022-08-03T02:52:52.337Z,22.50
2022-08-03T02:55:22.751Z,22.70
2022-08-03T02:57:51.666Z,22.80
2022-08-03T03:00:27.754Z,22.60
2022-08-03T03:03:00.401Z,22.30
2022-08-03T03:05:52.269Z,22.20
2022-08-03T03:08:25.830Z,22.20
2022-08-03T03:10:55.864Z,22.20
2022-08-03T03:13:23.413Z,22.30
2022-08-03T03:15:52.229Z,22.40
2022-08-03T03:18:22.774Z,22.40
2022-08-03T03:20:52.554Z,22.20
2022-08-03T03:23:22.044Z,22.30
2022-08-03T03:25:49.701Z,22.20
2022-08-03T03:28:17.039Z,22.30
2022-08-03T03:30:44.446Z,22.00
2022-08-03T03:33:12.393Z,22.00
2022-08-03T03:35:41.535Z,21.90
2022-08-03T03:38:09.552Z,22.10
2022-08-03T03:40:37.571Z,22.10
2022-08-03T03:43:08.741Z,22.10
2022-08-03T03:45:35.968Z,22.30
2022-08-03T03:48:05.515Z,22.40
2022-08-03T03:50:33.559Z,22.40
2022-08-03T03:53:01.557Z,22.40
2022-08-03T03:55:28.776Z,22.40
2022-08-03T03:57:55.856Z,22.40
2022-08-03T04:00:23.234Z,22.50
2022-08-03T04:02:50.106Z,22.70
2022-08-03T04:05:35.638Z,22.60
2022-08-03T04:08:26.493Z,22.60
2022-08-03T04:11:05.649Z,22.90
2022-08-03T04:13:40.815Z,23.00
2022-08-03T04:16:12.162Z,22.90
2022-08-03T04:18:41.649Z,22.80
2022-08-03T04:21:13.952Z,22.80
2022-08-03T04:23:46.115Z,23.00
2022-08-03T04:26:16.245Z,22.90
2022-08-03T04:28:49.260Z,22.90
2022-08-03T04:31:18.437Z,23.00
2022-08-03T04:33:46.401Z,23.20
2022-08-03T04:36:18.149Z,23.20
2022-08-03T04:39:10.844Z,23.20
2022-08-03T04:42:07.452Z,23.20
2022-08-03T04:44:28.828Z,23.20
2022-08-03T04:46:57.037Z,23.20
2022-08-03T04:49:25.336Z,23.10
2022-08-03T04:51:53.219Z,23.20
2022-08-03T04:54:20.123Z,23.50
2022-08-03T04:56:47.054Z,23.50
2022-08-03T04:59:14.207Z,23.50
2022-08-03T05:01:42.447Z,23.60
2022-08-03T05:04:09.737Z,23.40
2022-08-03T05:06:36.868Z,23.10
2022-08-03T05:09:14.778Z,23.20
2022-08-03T05:11:41.732Z,23.20
2022-08-03T05:14:08.745Z,23.50
2022-08-03T05:16:35.677Z,23.60
2022-08-03T05:19:02.636Z,23.70
2022-08-03T05:21:51.146Z,23.80
2022-08-03T05:24:16.409Z,23.90
2022-08-03T05:26:43.414Z,24.00
2022-08-03T05:29:10.319Z,24.00
2022-08-03T05:31:37.215Z,24.10
2022-08-03T05:34:04.190Z,24.30
2022-08-03T05:36:31.055Z,24.40
2022-08-03T05:39:02.460Z,24.50
2022-08-03T05:41:37.045Z,24.60
2022-08-03T05:44:05.010Z,24.70
2022-08-03T05:46:32.175Z,24.90
2022-08-03T05:48:59.141Z,25.30
2022-08-03T05:51:26.185Z,26.10
2022-08-03T05:53:53.075Z,30.00
2022-08-03T05:56:24.252Z,34.00
2022-08-03T05:58:52.438Z,35.90
2022-08-03T06:01:21.900Z,33.00
2022-08-03T06:03:50.350Z,29.70
2022-08-03T06:06:17.673Z,28.00
2022-08-03T06:08:46.065Z,27.10
2022-08-03T06:11:13.394Z,28.50
2022-08-03T06:13:40.849Z,28.10
2022-08-03T06:16:08.123Z,27.30
2022-08-03T06:18:35.716Z,27.00
2022-08-03T06:21:09.560Z,26.80
2022-08-03T06:23:54.295Z,26.70
2022-08-03T06:26:24.122Z,26.70
2022-08-03T06:28:52.997Z,27.60
2022-08-03T06:31:23.842Z,28.30
2022-08-03T06:34:32.872Z,28.40
2022-08-03T06:36:37.871Z,28.60
2022-08-03T06:39:06.472Z,32.40
2022-08-03T06:41:37.465Z,36.80
2022-08-03T06:44:08.358Z,38.90
2022-08-03T06:46:37.203Z,38.90
2022-08-03T06:49:04.123Z,39.70
2022-08-03T06:52:05.545Z,40.20
2022-08-03T06:54:18.326Z,40.20
2022-08-03T06:56:45.189Z,40.20
2022-08-03T07:00:07.918Z,40.50
2022-08-03T07:01:58.913Z,40.90
2022-08-03T07:04:25.890Z,41.40
2022-08-03T07:06:52.784Z,40.80
2022-08-03T07:09:19.649Z,40.80
2022-08-03T07:11:46.576Z,40.30
2022-08-03T07:14:13.837Z,39.90
2022-08-03T07:16:40.772Z,39.80
2022-08-03T07:19:07.655Z,40.60
2022-08-03T07:21:34.497Z,40.50
2022-08-03T07:24:01.436Z,40.50
2022-08-03T07:26:28.472Z,40.50
2022-08-03T07:28:55.596Z,40.50
2022-08-03T07:31:22.507Z,40.50
2022-08-03T07:33:49.433Z,39.60
2022-08-03T07:36:16.395Z,39.30
2022-08-03T07:38:43.389Z,39.30
2022-08-03T07:41:10.412Z,39.20
2022-08-03T07:43:37.301Z,38.50
2022-08-03T07:46:04.160Z,36.90
2022-08-03T07:48:31.132Z,35.90
2022-08-03T07:50:58.049Z,34.50
2022-08-03T07:53:24.939Z,33.10
2022-08-03T07:55:51.900Z,32.20
2022-08-03T07:58:22.184Z,31.80
2022-08-03T08:00:53.157Z,31.70
2022-08-03T08:03:21.959Z,31.80
2022-08-03T08:05:49.783Z,31.90
2022-08-03T08:08:16.641Z,31.70
2022-08-03T08:10:57.686Z,32.00
2022-08-03T08:13:26.058Z,32.20
2022-08-03T08:15:52.995Z,32.30
2022-08-03T08:18:20.018Z,32.50
2022-08-03T08:20:47.033Z,32.30
2022-08-03T08:23:37.645Z,32.10
2022-08-03T08:26:00.950Z,32.20
2022-08-03T08:28:31.145Z,32.20
2022-08-03T08:31:00.782Z,32.40
2022-08-03T08:33:42.048Z,32.50
2022-08-03T08:36:14.767Z,32.70
2022-08-03T08:38:44.617Z,32.60
2022-08-03T08:41:12.744Z,32.70
2022-08-03T08:43:40.192Z,32.80
2022-08-03T08:46:08.546Z,33.10
2022-08-03T08:48:40.508Z,33.30
2022-08-03T08:51:09.823Z,32.80
2022-08-03T08:53:41.025Z,33.00
2022-08-03T08:56:10.553Z,33.20
2022-08-03T08:58:41.604Z,33.60
2022-08-03T09:01:08.698Z,33.50
2022-08-03T09:03:35.897Z,33.50
2022-08-03T09:06:03.696Z,33.40
2022-08-03T09:08:32.489Z,33.10
2022-08-03T09:11:00.194Z,33.30
2022-08-03T09:13:27.434Z,33.30
2022-08-03T09:16:17.783Z,33.60
2022-08-03T09:18:49.808Z,33.70
2022-08-03T09:21:31.184Z,33.80
2022-08-03T09:24:03.824Z,34.10
2022-08-03T09:26:33.620Z,34.00
2022-08-03T09:29:05.973Z,34.00
2022-08-03T09:32:01.189Z,34.10
2022-08-03T09:34:28.780Z,34.40
2022-08-03T09:36:57.797Z,34.00
2022-08-03T09:39:41.161Z,34.20
2022-08-03T09:42:10.455Z,34.50
2022-08-03T09:44:45.269Z,34.60
2022-08-03T09:47:14.091Z,34.40
2022-08-03T09:49:43.133Z,33.90
2022-08-03T09:52:37.710Z,33.90
2022-08-03T09:56:30.569Z,34.00
2022-08-03T09:58:09.440Z,34.00
2022-08-03T10:00:53.878Z,34.30
2022-08-03T10:03:21.672Z,34.70
2022-08-03T10:05:48.632Z,34.70
2022-08-03T10:08:17.516Z,34.70
2022-08-03T10:10:47.184Z,34.60
2022-08-03T10:13:16.072Z,34.90
2022-08-03T10:16:21.430Z,34.60
2022-08-03T10:18:30.985Z,34.80
2022-08-03T10:21:07.835Z,34.80
2022-08-03T10:23:35.565Z,34.70
2022-08-03T10:26:04.497Z,34.90
2022-08-03T10:28:41.493Z,34.80
2022-08-03T10:31:13.049Z,34.60
2022-08-03T10:33:50.183Z,34.60
2022-08-03T10:36:23.155Z,34.80
2022-08-03T10:38:53.156Z,35.20
2022-08-03T10:41:21.866Z,35.40
2022-08-03T10:44:03.800Z,35.40
2022-08-03T10:46:32.007Z,35.30
2022-08-03T10:48:59.852Z,35.20
2022-08-03T10:51:31.946Z,34.70
2022-08-03T10:54:02.187Z,34.80
2022-08-03T10:56:54.378Z,35.00
2022-08-03T10:59:46.396Z,35.00
2022-08-03T11:02:16.270Z,35.10
2022-08-03T11:04:45.174Z,35.80
2022-08-03T11:07:25.568Z,35.70
2022-08-03T11:09:56.679Z,34.90
2022-08-03T11:12:32.289Z,35.20
2022-08-03T11:15:07.976Z,35.70
2022-08-03T11:17:45.864Z,36.10
2022-08-03T11:20:50.964Z,35.90
2022-08-03T11:24:04.810Z,35.40
2022-08-03T11:26:29.031Z,35.70
2022-08-03T11:29:29.985Z,35.80
2022-08-03T11:31:57.348Z,35.80
2022-08-03T11:34:24.768Z,35.90
2022-08-03T11:37:21.834Z,35.80
2022-08-03T11:39:51.614Z,35.40
2022-08-03T11:42:24.687Z,35.20
2022-08-03T11:44:59.237Z,35.70
2022-08-03T11:47:29.405Z,36.10
2022-08-03T11:49:59.165Z,35.90
2022-08-03T11:52:26.931Z,36.00
2022-08-03T11:54:56.545Z,36.30
2022-08-03T11:59:16.954Z,36.30
2022-08-03T12:00:26.043Z,36.40
2022-08-03T12:02:58.475Z,35.90
2022-08-03T12:05:51.226Z,35.70
2022-08-03T12:08:33.444Z,35.60
2022-08-03T12:11:06.700Z,35.70
2022-08-03T12:14:33.069Z,35.60
2022-08-03T12:16:28.838Z,36.10
2022-08-03T12:19:07.013Z,36.50
2022-08-03T12:21:34.022Z,36.00
2022-08-03T12:24:03.985Z,35.40
2022-08-03T12:26:43.995Z,35.60
2022-08-03T12:29:25.701Z,35.80
2022-08-03T12:31:52.667Z,35.60
2022-08-03T12:34:19.771Z,35.40
2022-08-03T12:36:59.156Z,35.60
2022-08-03T12:39:31.073Z,35.60
2022-08-03T12:41:58.263Z,35.60
2022-08-03T12:44:36.099Z,35.90
2022-08-03T12:47:04.108Z,36.10
2022-08-03T12:49:46.308Z,35.60
2022-08-03T12:52:13.461Z,35.50
2022-08-03T12:54:40.481Z,35.70
2022-08-03T12:57:16.260Z,35.70
2022-08-03T12:59:53.436Z,36.40
2022-08-03T13:02:24.913Z,36.10
2022-08-03T13:04:53.608Z,35.90
2022-08-03T13:07:21.574Z,36.00
2022-08-03T13:09:54.781Z,36.60
2022-08-03T13:12:29.923Z,36.20
2022-08-03T13:14:59.085Z,36.10
2022-08-03T13:17:26.799Z,35.70
2022-08-03T13:19:54.563Z,35.60
2022-08-03T13:22:23.385Z,36.00
2022-08-03T13:24:52.285Z,35.90
2022-08-03T13:28:02.198Z,35.50
2022-08-03T13:30:08.023Z,35.20
2022-08-03T13:32:35.591Z,35.40
2022-08-03T13:35:03.157Z,36.10
2022-08-03T13:37:32.203Z,36.50
2022-08-03T13:40:02.414Z,36.50
2022-08-03T13:42:31.804Z,35.90
2022-08-03T13:44:59.834Z,36.00
2022-08-03T13:47:27.910Z,36.10
2022-08-03T13:50:01.089Z,36.40
2022-08-03T13:52:31.462Z,35.90
2022-08-03T13:54:58.796Z,35.50
2022-08-03T13:58:03.676Z,35.60
2022-08-03T14:00:13.383Z,35.90
2022-08-03T14:02:56.229Z,35.90
2022-08-03T14:05:25.534Z,35.50
2022-08-03T14:07:52.464Z,35.70
2022-08-03T14:10:25.212Z,36.00
2022-08-03T14:12:52.239Z,36.40
2022-08-03T14:15:19.172Z,36.20
2022-08-03T14:17:49.968Z,35.70
2022-08-03T14:20:36.963Z,35.60
2022-08-03T14:23:04.376Z,35.50
2022-08-03T14:25:43.234Z,35.60
2022-08-03T14:28:19.040Z,35.80
2022-08-03T14:30:46.528Z,35.90
2022-08-03T14:33:13.427Z,35.70
2022-08-03T14:35:40.830Z,35.80
2022-08-03T14:38:07.777Z,35.60
2022-08-03T14:40:34.912Z,35.50
2022-08-03T14:43:02.560Z,35.60
2022-08-03T14:45:29.665Z,35.60
2022-08-03T14:50:33.382Z,35.60
2022-08-03T14:50:48.528Z,35.70
2022-08-03T14:53:17.927Z,35.70
2022-08-03T14:55:50.801Z,35.40
2022-08-03T14:58:23.105Z,35.40
2022-08-03T15:00:51.921Z,35.70
2022-08-03T15:03:24.707Z,35.40
2022-08-03T15:05:57.955Z,35.20
2022-08-03T15:08:26.508Z,35.10
2022-08-03T15:10:54.759Z,35.30
2022-08-03T15:13:22.253Z,34.90
2022-08-03T15:15:49.940Z,35.10
2022-08-03T15:18:16.904Z,35.40
2022-08-03T15:20:45.979Z,35.40
2022-08-03T15:23:15.212Z,35.00
2022-08-03T15:26:02.349Z,34.80
2022-08-03T15:28:30.743Z,34.70
2022-08-03T15:30:57.641Z,34.90
2022-08-03T15:33:24.978Z,34.90
2022-08-03T15:35:53.041Z,34.80
2022-08-03T15:38:25.825Z,35.10
2022-08-03T15:40:56.476Z,35.20
2022-08-03T15:43:24.116Z,34.70
2022-08-03T15:46:19.022Z,34.60
2022-08-03T15:48:38.590Z,34.50
2022-08-03T15:51:06.148Z,34.80
2022-08-03T15:53:34.080Z,35.00
2022-08-03T15:56:04.195Z,34.70
2022-08-03T15:59:09.608Z,34.60
2022-08-03T16:01:21.470Z,34.20
2022-08-03T16:03:48.892Z,34.00
2022-08-03T16:06:15.934Z,34.10
2022-08-03T16:08:43.033Z,34.00
2022-08-03T16:11:10.779Z,34.30
2022-08-03T16:14:11.924Z,34.40
2022-08-03T16:16:24.617Z,34.30
2022-08-03T16:18:51.540Z,34.10
2022-08-03T16:21:19.986Z,33.90
2022-08-03T16:23:48.767Z,33.70
2022-08-03T16:26:15.786Z,33.70
2022-08-03T16:28:42.657Z,33.80
2022-08-03T16:31:09.615Z,33.80
2022-08-03T16:33:36.549Z,33.70
2022-08-03T16:36:03.803Z,33.60
2022-08-03T16:38:31.285Z,33.40
2022-08-03T16:40:58.439Z,33.50
2022-08-03T16:43:25.462Z,33.50
2022-08-03T16:45:52.545Z,33.40
2022-08-03T16:48:20.041Z,33.50
2022-08-03T16:50:47.402Z,33.30
2022-08-03T16:53:16.855Z,33.50
2022-08-03T16:55:52.027Z,33.60
2022-08-03T16:58:42.664Z,33.40
2022-08-03T17:01:21.542Z,33.20
2022-08-03T17:04:02.373Z,33.20
2022-08-03T17:06:34.509Z,33.20
2022-08-03T17:09:08.369Z,33.10
2022-08-03T17:11:37.635Z,33.00
2022-08-03T17:14:09.422Z,32.90
2022-08-03T17:16:38.444Z,32.90
2022-08-03T17:19:07.425Z,32.90
2022-08-03T17:21:37.706Z,32.90
2022-08-03T17:24:15.063Z,32.90
2022-08-03T17:26:50.000Z,32.70
2022-08-03T17:29:25.164Z,32.70
2022-08-03T17:31:53.591Z,32.70
2022-08-03T17:34:26.349Z,32.80
2022-08-03T17:37:26.911Z,32.70
2022-08-03T17:39:58.262Z,32.70
2022-08-03T17:42:30.404Z,32.60
2022-08-03T17:45:01.963Z,32.50
2022-08-03T17:47:42.820Z,32.50
2022-08-03T17:50:24.363Z,32.50
2022-08-03T17:53:24.307Z,32.40
2022-08-03T17:56:40.451Z,32.30
2022-08-03T17:59:51.575Z,32.20
2022-08-03T18:02:40.439Z,32.20
2022-08-03T18:05:17.629Z,32.10
2022-08-03T18:08:01.674Z,31.90
2022-08-03T18:10:34.857Z,31.90
2022-08-03T18:13:10.915Z,31.80
2022-08-03T18:15:46.097Z,31.70
2022-08-03T18:18:17.220Z,31.60
2022-08-03T18:21:04.751Z,31.50
2022-08-03T18:23:36.608Z,31.40
2022-08-03T18:26:10.693Z,31.40
2022-08-03T18:28:39.744Z,31.30
2022-08-03T18:31:11.645Z,31.10
2022-08-03T18:34:16.179Z,31.00
2022-08-03T18:36:30.534Z,30.80
2022-08-03T18:39:03.244Z,30.70
2022-08-03T18:41:36.606Z,30.60
2022-08-03T18:44:08.995Z,30.50
2022-08-03T18:47:07.517Z,30.40
2022-08-03T18:49:53.341Z,30.30
2022-08-03T18:52:27.824Z,30.10
2022-08-03T18:55:02.523Z,30.00
2022-08-03T18:57:47.102Z,29.90
2022-08-03T19:00:16.677Z,29.50
2022-08-03T19:02:49.946Z,29.40
2022-08-03T19:05:19.990Z,29.30
2022-08-03T19:08:21.273Z,29.20
2022-08-03T19:11:02.480Z,29.10
2022-08-03T19:13:50.404Z,29.00
2022-08-03T19:16:32.814Z,28.90
2022-08-03T19:19:02.596Z,28.90
2022-08-03T19:21:30.795Z,28.80
2022-08-03T19:24:10.205Z,28.70
2022-08-03T19:26:39.533Z,28.80
2022-08-03T19:29:14.900Z,28.60
2022-08-03T19:31:57.945Z,28.50
2022-08-03T19:34:32.739Z,28.50
2022-08-03T19:37:00.533Z,28.50
2022-08-03T19:39:27.492Z,28.40
2022-08-03T19:42:06.328Z,28.30
2022-08-03T19:44:51.946Z,28.20
2022-08-03T19:47:57.344Z,28.20
2022-08-03T19:50:25.124Z,28.20
2022-08-03T19:52:52.889Z,28.20
2022-08-03T19:55:20.301Z,28.20
2022-08-03T19:57:49.047Z,28.10
2022-08-03T20:00:19.800Z,28.20
2022-08-03T20:02:47.688Z,28.00
2022-08-03T20:05:18.890Z,27.90
2022-08-03T20:07:47.740Z,27.90
2022-08-03T20:10:17.749Z,27.70
2022-08-03T20:12:46.401Z,27.70
2022-08-03T20:15:13.483Z,27.60
2022-08-03T20:17:56.492Z,27.80
2022-08-03T20:20:35.778Z,27.60
2022-08-03T20:23:22.793Z,27.60
2022-08-03T20:25:58.524Z,27.60
2022-08-03T20:28:42.948Z,27.50
2022-08-03T20:31:18.820Z,27.50
2022-08-03T20:33:49.112Z,27.40
2022-08-03T20:36:17.933Z,27.30
2022-08-03T20:38:47.053Z,27.20
2022-08-03T20:41:15.246Z,27.30
2022-08-03T20:43:42.334Z,27.20
2022-08-03T20:48:58.990Z,27.20
2022-08-03T20:51:49.512Z,27.20
2022-08-03T20:54:22.911Z,27.20
2022-08-03T20:56:56.812Z,27.10
2022-08-03T20:59:28.524Z,27.00
2022-08-03T21:01:57.422Z,27.00
2022-08-03T21:04:24.571Z,27.10
2022-08-03T21:07:03.683Z,27.00
2022-08-03T21:09:55.829Z,27.00
2022-08-03T21:12:49.050Z,27.00
2022-08-03T21:13:13.905Z,27.30
2022-08-03T21:16:12.135Z,27.00
2022-08-03T21:18:11.143Z,27.20
2022-08-03T21:20:41.029Z,27.10
2022-08-03T21:23:10.408Z,26.90
2022-08-03T21:25:58.709Z,26.80
2022-08-03T21:28:27.787Z,26.70
2022-08-03T21:30:54.769Z,26.70
2022-08-03T21:33:27.728Z,26.50
2022-08-03T21:35:54.697Z,26.50
2022-08-03T21:38:29.640Z,26.40
2022-08-03T21:40:57.361Z,26.60
2022-08-03T21:43:24.617Z,26.50
2022-08-03T21:46:02.970Z,26.60
2022-08-03T21:48:41.524Z,26.60
2022-08-03T21:51:11.664Z,26.60
2022-08-03T21:54:02.322Z,26.60
2022-08-03T21:56:28.249Z,26.50
2022-08-03T21:59:04.946Z,26.60
2022-08-03T22:01:35.352Z,26.60
2022-08-03T22:04:07.360Z,26.60
2022-08-03T22:06:36.559Z,26.60
2022-08-03T22:09:06.407Z,26.50
2022-08-03T22:11:37.170Z,26.30
2022-08-03T22:14:04.448Z,26.30
2022-08-03T22:16:31.915Z,26.30
2022-08-03T22:18:58.918Z,26.20
2022-08-03T22:21:36.140Z,26.20
2022-08-03T22:24:06.066Z,26.30
2022-08-03T22:26:35.835Z,26.30
2022-08-03T22:29:07.607Z,26.20
2022-08-03T22:31:59.237Z,26.20
2022-08-03T22:34:26.521Z,26.20
2022-08-03T22:36:56.569Z,26.10
2022-08-03T22:39:28.787Z,26.00
2022-08-03T22:41:58.936Z,25.90
2022-08-03T22:44:29.477Z,26.10
2022-08-03T22:46:56.578Z,26.00
2022-08-03T22:49:24.387Z,26.00
2022-08-03T22:51:52.701Z,25.90
2022-08-03T22:54:19.672Z,25.80
2022-08-03T22:56:47.155Z,25.80
2022-08-03T22:59:41.468Z,25.80
2022-08-03T23:02:20.711Z,25.80
2022-08-03T23:04:55.067Z,25.80
2022-08-03T23:07:30.255Z,25.70
2022-08-03T23:09:58.148Z,25.80
2022-08-03T23:12:25.204Z,25.80
2022-08-03T23:14:55.573Z,25.70
2022-08-03T23:17:24.146Z,25.70
2022-08-03T23:19:52.743Z,25.70
2022-08-03T23:22:30.043Z,25.70
2022-08-03T23:24:59.457Z,25.70
2022-08-03T23:27:27.620Z,25.70
2022-08-03T23:29:57.226Z,25.70
2022-08-03T23:32:26.626Z,25.70
2022-08-03T23:35:17.313Z,25.70
2022-08-03T23:38:04.218Z,25.70
2022-08-03T23:40:33.920Z,25.70
2022-08-03T23:43:02.183Z,25.70
2022-08-03T23:45:30.514Z,25.70
2022-08-03T23:47:57.474Z,25.60
2022-08-03T23:50:25.425Z,25.60
2022-08-03T23:53:16.117Z,25.60
2022-08-03T23:56:09.991Z,25.60
2022-08-03T23:58:48.837Z,25.50
